Time;durP1;ratioP1;P1;durP2;ratioP2;P2;SDS_P1;SDS_P2;PMS_P1;PMS_P2;Temp;Humidity;BMP_temperature;BMP_pressure;BME280_temperature;BME280_humidity;BME280_pressure;Samples;Min_cycle;Max_cycle;Signal;HPM_P1;HPM_P2
2023/01/10 00:00:35;;;;;;;7.63;4.03;;;10.40;99.90;;;;;;5053633;28;20078;-73
2023/01/10 00:03:04;;;;;;;9.15;4.30;;;10.30;99.90;;;;;;5067316;28;20098;-72
2023/01/10 00:05:30;;;;;;;14.90;6.72;;;10.30;99.90;;;;;;5054104;28;20059;-73
2023/01/10 00:07:57;;;;;;;13.02;6.90;;;10.40;99.90;;;;;;5049330;28;20343;-73
2023/01/10 00:10:24;;;;;;;15.13;6.85;;;10.40;99.90;;;;;;5051891;28;20029;-73
2023/01/10 00:15:35;;;;;;;18.42;8.77;;;10.40;99.90;;;;;;5073706;28;20486;-72
2023/01/10 00:18:02;;;;;;;18.92;8.68;;;10.40;99.90;;;;;;5057298;28;20031;-71
2023/01/10 00:20:28;;;;;;;18.30;8.57;;;10.40;99.90;;;;;;5066747;28;20154;-73
2023/01/10 00:22:54;;;;;;;18.00;9.85;;;10.40;99.90;;;;;;5064434;28;20035;-71
2023/01/10 00:25:21;;;;;;;15.27;8.90;;;10.40;99.90;;;;;;5037077;28;20439;-72
2023/01/10 00:28:16;;;;;;;13.75;7.63;;;10.40;99.90;;;;;;5065871;28;20021;-72
2023/01/10 00:30:42;;;;;;;14.70;8.60;;;10.40;99.90;;;;;;5056561;28;20032;-71
2023/01/10 00:33:11;;;;;;;16.55;8.43;;;10.40;99.90;;;;;;5061733;28;20377;-72
2023/01/10 00:35:37;;;;;;;16.38;8.93;;;10.40;99.90;;;;;;5041065;28;20395;-72
2023/01/10 00:38:08;;;;;;;15.05;8.15;;;10.40;99.90;;;;;;5071277;28;20016;-72
2023/01/10 00:40:33;;;;;;;18.95;9.45;;;10.40;99.90;;;;;;5055202;28;20032;-72
2023/01/10 00:45:46;;;;;;;18.75;9.00;;;10.50;99.90;;;;;;5053264;28;20123;-71
2023/01/10 00:48:13;;;;;;;16.63;8.88;;;10.50;99.90;;;;;;5052972;28;20107;-72
2023/01/10 00:50:38;;;;;;;17.25;8.55;;;10.40;99.90;;;;;;5053243;28;20037;-72
2023/01/10 00:53:04;;;;;;;16.95;8.43;;;10.50;99.90;;;;;;5054807;28;20032;-72
2023/01/10 00:55:32;;;;;;;15.82;8.88;;;10.50;99.90;;;;;;5063139;28;20056;-72
2023/01/10 00:57:58;;;;;;;17.08;8.40;;;10.30;99.90;;;;;;5060772;28;20031;-72
2023/01/10 01:00:24;;;;;;;15.63;8.05;;;10.30;99.90;;;;;;5072972;28;20025;-72
2023/01/10 01:02:50;;;;;;;14.48;6.38;;;10.10;99.90;;;;;;5056054;28;20357;-72
2023/01/10 01:05:17;;;;;;;15.77;7.45;;;10.10;99.90;;;;;;5063095;28;20123;-73
2023/01/10 01:07:42;;;;;;;14.05;6.90;;;10.10;99.90;;;;;;5052133;28;20549;-72
2023/01/10 01:10:27;;;;;;;9.93;4.85;;;10.10;99.90;;;;;;5043025;28;20029;-72
2023/01/10 01:12:55;;;;;;;12.20;5.93;;;10.20;99.90;;;;;;5066009;28;20036;-73
2023/01/10 01:15:21;;;;;;;14.90;6.93;;;10.10;99.90;;;;;;5066257;28;20105;-72
2023/01/10 01:17:47;;;;;;;17.60;10.68;;;10.10;99.90;;;;;;5052400;28;20021;-72
2023/01/10 01:20:14;;;;;;;22.75;12.50;;;9.90;99.90;;;;;;5067980;28;20056;-72
2023/01/10 01:22:40;;;;;;;22.35;12.32;;;9.90;99.90;;;;;;5063691;28;20025;-72
2023/01/10 01:25:07;;;;;;;21.38;11.65;;;9.80;99.90;;;;;;5068286;28;20442;-72
2023/01/10 01:27:33;;;;;;;15.38;7.88;;;9.60;99.90;;;;;;5063926;28;20035;-71
2023/01/10 01:30:00;;;;;;;12.05;7.22;;;9.30;99.90;;;;;;5068469;28;20067;-73
2023/01/10 01:32:26;;;;;;;8.02;4.68;;;9.20;99.90;;;;;;5063279;28;20044;-73
2023/01/10 01:34:52;;;;;;;8.93;4.18;;;9.10;99.90;;;;;;5052394;28;20033;-72
2023/01/10 01:37:18;;;;;;;7.53;4.03;;;9.00;99.90;;;;;;5061914;28;20543;-72
2023/01/10 01:39:47;;;;;;;7.30;3.58;;;8.90;99.90;;;;;;5058837;28;20361;-72
2023/01/10 01:42:39;;;;;;;4.85;2.72;;;8.80;99.90;;;;;;5062802;28;20055;-72
2023/01/10 01:45:08;;;;;;;5.63;3.28;;;8.80;99.90;;;;;;5065433;28;20102;-72
2023/01/10 01:47:41;;;;;;;6.22;2.95;;;8.60;99.90;;;;;;5069731;28;20041;-72
2023/01/10 01:50:14;;;;;;;6.85;2.97;;;8.60;99.90;;;;;;5042449;28;20040;-73
2023/01/10 01:52:40;;;;;;;3.45;2.30;;;8.50;99.90;;;;;;5051256;28;20403;-72
2023/01/10 01:55:06;;;;;;;5.10;2.55;;;8.40;99.90;;;;;;5064971;28;20021;-72
2023/01/10 01:57:33;;;;;;;2.05;1.50;;;8.30;99.90;;;;;;5076107;28;20040;-73
2023/01/10 02:00:01;;;;;;;2.30;1.65;;;8.20;99.90;;;;;;5076588;28;20051;-72
2023/01/10 02:02:52;;;;;;;3.20;1.80;;;8.20;99.90;;;;;;5074744;28;20032;-72
2023/01/10 02:05:23;;;;;;;2.65;1.70;;;8.00;99.90;;;;;;5076464;28;20401;-74
2023/01/10 02:07:56;;;;;;;4.13;1.40;;;7.90;99.90;;;;;;5076433;28;20029;-71
2023/01/10 02:10:34;;;;;;;2.22;1.35;;;7.90;99.90;;;;;;5054051;28;20060;-71
2023/01/10 02:13:06;;;;;;;1.83;1.52;;;7.80;99.90;;;;;;5049498;28;20112;-72
2023/01/10 02:15:32;;;;;;;1.98;1.50;;;7.70;99.90;;;;;;5060223;28;20029;-71
2023/01/10 02:17:59;;;;;;;1.95;1.50;;;7.70;99.90;;;;;;5055561;28;20507;-73
2023/01/10 02:20:27;;;;;;;2.10;1.40;;;7.70;99.90;;;;;;5067949;28;20053;-71
2023/01/10 02:22:56;;;;;;;4.28;1.45;;;7.70;99.90;;;;;;5055459;28;20040;-71
2023/01/10 02:25:34;;;;;;;1.30;1.20;;;7.70;99.90;;;;;;5053514;28;20174;-71
2023/01/10 02:28:37;;;;;;;2.33;1.25;;;7.70;99.90;;;;;;5055777;28;20108;-71
2023/01/10 02:31:30;;;;;;;1.23;0.75;;;7.60;99.90;;;;;;5067551;28;20067;-71
2023/01/10 02:34:22;;;;;;;1.20;0.85;;;7.60;99.90;;;;;;5044385;28;20105;-71
2023/01/10 02:37:15;;;;;;;1.75;1.55;;;7.60;99.90;;;;;;5074430;28;20040;-71
2023/01/10 02:40:09;;;;;;;2.75;1.27;;;7.50;99.90;;;;;;5059414;28;20075;-71
2023/01/10 02:43:05;;;;;;;1.17;0.70;;;7.50;99.90;;;;;;5052692;28;20056;-72
2023/01/10 02:46:00;;;;;;;1.65;0.90;;;7.40;99.90;;;;;;4926610;29;20492;-71
2023/01/10 02:48:26;;;;;;;2.15;0.90;;;7.30;99.90;;;;;;4907681;29;20043;-71
2023/01/10 02:50:57;;;;;;;1.52;0.93;;;7.30;99.90;;;;;;4936125;29;20047;-71
2023/01/10 02:53:31;;;;;;;1.10;1.00;;;7.30;99.90;;;;;;4934898;29;20034;-72
2023/01/10 02:56:15;;;;;;;1.75;0.93;;;7.30;99.90;;;;;;4938628;28;20040;-71
2023/01/10 02:58:57;;;;;;;1.17;0.80;;;7.30;99.90;;;;;;4935951;29;20156;-71
2023/01/10 03:01:29;;;;;;;1.55;1.00;;;7.20;99.90;;;;;;4935989;29;20083;-71
2023/01/10 03:04:24;;;;;;;0.90;0.90;;;7.20;99.90;;;;;;4931232;29;20047;-71
2023/01/10 03:07:21;;;;;;;2.72;0.70;;;7.10;99.90;;;;;;4935993;29;20048;-71
2023/01/10 03:10:02;;;;;;;1.00;0.80;;;7.10;99.90;;;;;;4936009;29;20043;-71
2023/01/10 03:12:41;;;;;;;0.93;0.77;;;7.00;99.90;;;;;;4935369;29;20031;-71
2023/01/10 03:15:11;;;;;;;1.83;0.90;;;7.00;99.90;;;;;;4929401;29;20032;-71
2023/01/10 03:17:39;;;;;;;1.27;0.70;;;7.00;99.90;;;;;;4935850;29;20511;-71
2023/01/10 03:20:06;;;;;;;1.60;0.75;;;6.90;99.90;;;;;;4935361;29;20081;-71
2023/01/10 03:22:35;;;;;;;0.70;0.70;;;6.90;99.90;;;;;;5033991;28;20052;-71
2023/01/10 03:25:05;;;;;;;1.27;0.70;;;6.90;99.90;;;;;;5048658;28;20029;-71
2023/01/10 03:27:34;;;;;;;3.78;1.05;;;6.90;99.90;;;;;;5054777;28;20025;-71
2023/01/10 03:30:12;;;;;;;0.63;0.52;;;6.90;99.90;;;;;;5069841;28;20021;-70
2023/01/10 03:32:38;;;;;;;1.45;0.75;;;6.80;99.90;;;;;;5063753;28;20032;-71
2023/01/10 03:35:05;;;;;;;0.60;0.60;;;6.80;99.90;;;;;;5067415;28;20389;-72
2023/01/10 03:37:55;;;;;;;0.85;0.77;;;6.80;99.90;;;;;;5054940;28;20029;-72
2023/01/10 03:40:21;;;;;;;0.70;0.70;;;6.80;99.90;;;;;;5062302;28;20035;-72
2023/01/10 03:45:58;;;;;;;1.05;0.95;;;6.80;99.90;;;;;;5074498;28;20036;-71
2023/01/10 03:48:27;;;;;;;0.60;0.60;;;6.70;99.90;;;;;;5074358;28;20102;-71
2023/01/10 03:50:53;;;;;;;1.25;0.70;;;6.60;99.90;;;;;;5074047;28;20032;-72
2023/01/10 03:53:19;;;;;;;0.60;0.60;;;6.50;99.90;;;;;;5066419;28;20017;-71
2023/01/10 03:55:45;;;;;;;0.50;0.43;;;6.50;99.90;;;;;;5068531;28;20077;-71
2023/01/10 03:58:11;;;;;;;0.68;0.57;;;6.50;99.90;;;;;;5074188;28;20531;-72
2023/01/10 04:00:38;;;;;;;0.85;0.60;;;6.40;99.90;;;;;;5051302;28;20021;-72
2023/01/10 04:03:04;;;;;;;2.22;1.30;;;6.40;99.90;;;;;;5062146;28;20017;-71
2023/01/10 04:05:29;;;;;;;4.68;1.80;;;6.40;99.90;;;;;;5060470;28;20142;-72
2023/01/10 04:07:55;;;;;;;4.68;1.92;;;6.40;99.90;;;;;;5073662;28;20024;-71
2023/01/10 04:10:21;;;;;;;4.88;2.15;;;6.40;99.90;;;;;;5072724;28;20434;-71
2023/01/10 04:12:47;;;;;;;0.60;0.60;;;6.40;99.90;;;;;;5050891;28;20032;-70
2023/01/10 04:15:13;;;;;;;0.40;0.40;;;6.30;99.90;;;;;;5066498;28;20040;-73
2023/01/10 04:17:39;;;;;;;1.13;0.85;;;6.30;99.90;;;;;;5073821;28;20078;-73
2023/01/10 04:20:05;;;;;;;1.67;0.85;;;6.30;99.90;;;;;;5058591;28;20120;-72
2023/01/10 04:22:31;;;;;;;0.73;0.60;;;6.20;99.90;;;;;;5053642;28;20025;-71
2023/01/10 04:24:57;;;;;;;1.05;0.90;;;6.20;99.90;;;;;;5066535;28;20427;-72
2023/01/10 04:27:23;;;;;;;1.88;0.95;;;6.20;99.90;;;;;;5053575;28;20040;-71
2023/01/10 04:29:49;;;;;;;0.75;0.75;;;6.20;99.90;;;;;;5055037;28;20037;-71
2023/01/10 04:32:14;;;;;;;0.70;0.70;;;6.10;99.90;;;;;;5070983;28;20077;-71
2023/01/10 04:34:40;;;;;;;0.90;0.73;;;6.10;99.90;;;;;;5073429;28;20051;-71
2023/01/10 04:37:06;;;;;;;1.25;0.60;;;6.00;99.90;;;;;;5073520;28;20021;-71
2023/01/10 04:39:32;;;;;;;0.43;0.43;;;6.00;99.90;;;;;;5053654;28;20042;-72
2023/01/10 04:41:58;;;;;;;0.35;0.35;;;6.00;99.90;;;;;;5044172;28;20021;-71
2023/01/10 04:44:24;;;;;;;1.00;0.65;;;6.00;99.90;;;;;;5051666;28;20500;-73
2023/01/10 04:46:51;;;;;;;1.10;0.65;;;5.90;99.90;;;;;;5040635;28;20055;-72
2023/01/10 04:49:16;;;;;;;0.60;0.60;;;6.00;99.90;;;;;;5047817;28;20036;-72
2023/01/10 04:51:42;;;;;;;0.73;0.73;;;5.90;99.90;;;;;;5053189;28;20379;-73
2023/01/10 04:54:08;;;;;;;0.40;0.40;;;5.90;99.90;;;;;;5046291;28;20061;-73
2023/01/10 04:56:34;;;;;;;0.63;0.60;;;5.90;99.90;;;;;;5046763;28;20034;-73
2023/01/10 04:59:00;;;;;;;1.15;0.70;;;5.90;99.90;;;;;;5040095;28;20032;-73
2023/01/10 05:01:25;;;;;;;1.27;0.95;;;5.90;99.90;;;;;;5041119;28;20676;-73
2023/01/10 05:03:54;;;;;;;2.00;0.93;;;6.00;99.90;;;;;;5039378;28;20037;-71
2023/01/10 05:06:21;;;;;;;7.40;2.55;;;5.90;99.90;;;;;;5053119;28;20453;-73
2023/01/10 05:08:47;;;;;;;7.72;2.90;;;6.00;99.90;;;;;;5066291;28;20099;-70
2023/01/10 05:11:15;;;;;;;8.32;4.13;;;6.00;99.90;;;;;;5066210;28;20031;-70
2023/01/10 05:13:41;;;;;;;3.75;2.25;;;6.00;99.90;;;;;;5066011;28;20051;-70
2023/01/10 05:16:07;;;;;;;5.95;2.20;;;6.00;99.90;;;;;;5071126;28;20070;-70
2023/01/10 05:18:33;;;;;;;3.05;1.65;;;6.00;99.90;;;;;;5052698;28;20134;-71
2023/01/10 05:21:00;;;;;;;2.42;1.38;;;6.00;99.90;;;;;;5052384;28;20036;-71
2023/01/10 05:23:27;;;;;;;2.25;1.40;;;5.90;99.90;;;;;;5071608;28;20024;-71
2023/01/10 05:25:53;;;;;;;1.80;1.10;;;6.00;99.90;;;;;;5060607;28;20028;-71
2023/01/10 05:28:19;;;;;;;2.25;1.50;;;5.90;99.90;;;;;;5052481;28;20021;-71
2023/01/10 05:30:45;;;;;;;3.20;1.15;;;5.90;99.90;;;;;;5064985;28;20032;-71
2023/01/10 05:33:10;;;;;;;1.70;1.10;;;6.00;99.90;;;;;;5053805;28;20094;-72
2023/01/10 05:35:36;;;;;;;1.52;1.00;;;5.90;99.90;;;;;;5065096;28;20039;-71
2023/01/10 05:38:02;;;;;;;2.10;1.02;;;5.90;99.90;;;;;;5058938;28;20021;-71
2023/01/10 05:40:28;;;;;;;1.55;0.85;;;5.90;99.90;;;;;;5059987;28;20029;-72
2023/01/10 05:42:54;;;;;;;4.35;1.40;;;5.90;99.90;;;;;;5058204;28;20013;-72
2023/01/10 05:45:20;;;;;;;1.92;1.10;;;5.90;99.90;;;;;;5072543;28;20499;-72
2023/01/10 05:47:46;;;;;;;2.20;1.20;;;5.90;99.90;;;;;;5071803;28;20037;-72
2023/01/10 05:50:12;;;;;;;1.95;1.02;;;5.80;99.90;;;;;;5072680;28;20028;-71
2023/01/10 05:52:39;;;;;;;3.05;1.88;;;5.80;99.90;;;;;;5052641;28;20034;-72
2023/01/10 05:55:05;;;;;;;3.28;1.73;;;5.90;99.90;;;;;;5049588;28;20049;-73
2023/01/10 05:57:31;;;;;;;3.17;1.65;;;5.90;99.90;;;;;;5056189;28;20055;-72
2023/01/10 05:59:57;;;;;;;4.03;2.25;;;5.80;99.90;;;;;;5065222;28;20025;-72
2023/01/10 06:02:25;;;;;;;1.83;1.13;;;5.80;99.90;;;;;;5064184;28;20032;-71
2023/01/10 06:04:54;;;;;;;2.30;1.55;;;5.80;99.90;;;;;;5047617;28;20041;-72
2023/01/10 06:07:20;;;;;;;2.45;1.50;;;5.70;99.90;;;;;;5052428;28;20025;-72
2023/01/10 06:09:46;;;;;;;1.63;1.25;;;5.70;99.90;;;;;;5065882;28;20032;-72
2023/01/10 06:12:12;;;;;;;3.40;1.40;;;5.70;99.90;;;;;;5065639;28;20091;-72
2023/01/10 06:14:38;;;;;;;2.22;1.50;;;5.70;99.90;;;;;;5056633;28;20056;-71
2023/01/10 06:17:08;;;;;;;4.97;2.08;;;5.70;99.90;;;;;;5056030;28;20025;-71
2023/01/10 06:19:34;;;;;;;8.48;2.97;;;5.70;99.90;;;;;;5052459;28;20486;-74
2023/01/10 06:22:01;;;;;;;6.75;3.00;;;5.70;99.90;;;;;;5052150;28;20104;-72
2023/01/10 06:24:27;;;;;;;7.88;2.85;;;5.70;99.90;;;;;;5050769;28;20460;-72
2023/01/10 06:26:52;;;;;;;3.78;1.80;;;5.70;99.90;;;;;;5056096;28;20017;-72
2023/01/10 06:29:18;;;;;;;2.65;1.30;;;5.70;99.90;;;;;;5061922;28;20393;-72
2023/01/10 06:31:44;;;;;;;1.95;1.55;;;5.70;99.90;;;;;;5057560;28;20021;-75
2023/01/10 06:34:10;;;;;;;3.75;1.70;;;5.70;99.90;;;;;;5070713;28;20100;-71
2023/01/10 06:36:36;;;;;;;3.08;1.50;;;5.70;99.90;;;;;;5072464;28;20070;-71
2023/01/10 06:39:02;;;;;;;5.35;1.98;;;5.70;99.90;;;;;;5047474;28;20082;-71
2023/01/10 06:41:28;;;;;;;1.60;1.30;;;5.70;99.90;;;;;;5072414;28;20476;-73
2023/01/10 06:43:54;;;;;;;2.42;1.52;;;5.70;99.90;;;;;;5065100;28;20122;-72
2023/01/10 06:46:20;;;;;;;2.70;1.50;;;5.70;99.90;;;;;;5053716;28;20044;-73
2023/01/10 06:48:47;;;;;;;2.40;1.40;;;5.80;99.90;;;;;;5055144;28;20029;-71
2023/01/10 06:51:14;;;;;;;3.92;1.83;;;5.70;99.90;;;;;;5055786;28;20029;-73
2023/01/10 06:53:41;;;;;;;5.63;2.10;;;5.70;99.90;;;;;;5075718;28;20031;-73
2023/01/10 06:56:08;;;;;;;2.88;1.50;;;5.80;99.90;;;;;;5060237;28;20012;-74
2023/01/10 06:58:37;;;;;;;2.63;1.52;;;5.70;99.90;;;;;;5058009;28;20021;-72
2023/01/10 07:01:17;;;;;;;2.63;1.27;;;5.70;99.90;;;;;;5057041;28;20111;-72
2023/01/10 07:03:43;;;;;;;3.60;1.67;;;5.70;99.90;;;;;;5062747;28;20033;-73
2023/01/10 07:06:09;;;;;;;2.85;1.35;;;5.80;99.90;;;;;;5054132;28;20040;-73
2023/01/10 07:08:36;;;;;;;7.53;1.98;;;5.80;99.90;;;;;;5054687;28;20538;-73
2023/01/10 07:11:02;;;;;;;5.40;2.17;;;5.80;99.90;;;;;;5055599;28;20086;-73
2023/01/10 07:13:28;;;;;;;3.40;1.50;;;5.80;99.90;;;;;;5054827;28;20029;-74
2023/01/10 07:16:07;;;;;;;5.82;2.00;;;5.80;99.90;;;;;;5074663;28;20055;-73
2023/01/10 07:18:34;;;;;;;2.88;1.98;;;5.90;99.90;;;;;;5073319;28;20111;-73
2023/01/10 07:21:00;;;;;;;3.70;1.90;;;5.80;99.90;;;;;;5057960;28;20026;-73
2023/01/10 07:23:26;;;;;;;4.05;2.40;;;5.90;99.90;;;;;;5070712;28;20078;-73
2023/01/10 07:25:52;;;;;;;6.43;1.92;;;5.90;99.90;;;;;;5065718;28;20033;-73
2023/01/10 07:28:18;;;;;;;3.75;1.90;;;5.90;99.90;;;;;;5070270;28;20024;-74
2023/01/10 07:30:43;;;;;;;4.90;2.38;;;6.00;99.90;;;;;;5065784;28;20408;-73
2023/01/10 07:33:09;;;;;;;6.20;2.28;;;6.00;99.90;;;;;;5055394;28;20025;-72
2023/01/10 07:35:35;;;;;;;5.88;2.50;;;6.10;99.90;;;;;;5074626;28;20048;-73
2023/01/10 07:38:02;;;;;;;4.05;2.20;;;6.20;99.90;;;;;;5043239;28;20021;-73
2023/01/10 07:40:28;;;;;;;8.30;3.58;;;6.10;99.90;;;;;;5074720;28;20069;-73
2023/01/10 07:43:01;;;;;;;5.18;2.53;;;6.20;99.90;;;;;;5055856;28;20021;-73
2023/01/10 07:45:28;;;;;;;10.30;4.20;;;6.20;99.90;;;;;;5054343;28;20029;-73
2023/01/10 07:47:59;;;;;;;4.68;2.80;;;6.20;99.90;;;;;;5057742;28;20097;-73
2023/01/10 07:50:26;;;;;;;8.70;3.70;;;6.30;99.90;;;;;;5074886;28;20069;-73
2023/01/10 07:52:53;;;;;;;7.57;3.58;;;6.30;99.90;;;;;;5058995;28;20396;-73
2023/01/10 07:55:19;;;;;;;7.60;3.35;;;6.20;99.90;;;;;;5065028;28;20036;-73
2023/01/10 07:57:44;;;;;;;5.72;3.08;;;6.30;99.90;;;;;;5060905;28;20022;-74
2023/01/10 08:00:11;;;;;;;6.97;3.00;;;6.40;99.90;;;;;;5044729;28;20029;-72
2023/01/10 08:02:37;;;;;;;5.78;3.15;;;6.40;99.90;;;;;;5047798;28;20020;-73
2023/01/10 08:05:03;;;;;;;4.85;2.45;;;6.30;99.90;;;;;;5053089;28;20396;-73
2023/01/10 08:07:30;;;;;;;9.05;3.30;;;6.40;99.90;;;;;;5043119;28;20096;-73
2023/01/10 08:09:56;;;;;;;7.32;3.17;;;6.30;99.90;;;;;;5053933;28;20033;-74
2023/01/10 08:12:23;;;;;;;6.32;3.58;;;6.40;99.90;;;;;;5052327;28;20082;-73
2023/01/10 08:14:50;;;;;;;5.75;3.20;;;6.40;99.90;;;;;;5064759;28;20037;-73
2023/01/10 08:17:16;;;;;;;7.63;3.08;;;6.30;99.90;;;;;;5069368;28;20012;-73
2023/01/10 08:19:42;;;;;;;5.57;3.08;;;6.30;99.90;;;;;;5065222;28;20032;-73
2023/01/10 08:22:08;;;;;;;6.70;3.78;;;6.30;99.90;;;;;;5067421;28;20029;-73
2023/01/10 08:24:34;;;;;;;6.70;2.80;;;6.30;99.90;;;;;;5053788;28;20428;-72
2023/01/10 08:27:00;;;;;;;6.43;3.22;;;6.30;99.90;;;;;;5053533;28;20029;-73
2023/01/10 08:29:27;;;;;;;11.13;4.68;;;6.30;99.90;;;;;;5065494;28;20028;-74
2023/01/10 08:31:53;;;;;;;6.97;3.45;;;6.30;99.90;;;;;;5054893;28;20541;-74
2023/01/10 08:34:18;;;;;;;5.38;2.92;;;6.30;99.90;;;;;;5041725;28;20108;-73
2023/01/10 08:36:45;;;;;;;9.15;4.00;;;6.30;99.90;;;;;;5048551;28;20040;-73
2023/01/10 08:39:11;;;;;;;7.22;3.65;;;6.30;99.90;;;;;;5052057;28;20504;-73
2023/01/10 08:41:39;;;;;;;6.38;3.45;;;6.40;99.90;;;;;;5051503;28;20104;-74
2023/01/10 08:44:05;;;;;;;4.97;2.65;;;6.40;99.90;;;;;;5052680;28;20036;-73
2023/01/10 08:46:31;;;;;;;4.40;2.30;;;6.40;99.90;;;;;;5050957;28;20049;-73
2023/01/10 08:48:57;;;;;;;5.15;2.30;;;6.40;99.90;;;;;;5053352;28;20457;-74
2023/01/10 08:51:23;;;;;;;6.65;3.08;;;6.30;99.90;;;;;;5051822;28;20045;-74
2023/01/10 08:53:48;;;;;;;5.15;2.60;;;6.40;99.90;;;;;;5055558;28;20020;-73
2023/01/10 08:56:14;;;;;;;4.28;2.13;;;6.40;99.90;;;;;;5063889;28;20052;-73
2023/01/10 08:58:40;;;;;;;2.38;1.45;;;6.40;99.90;;;;;;5066410;28;20095;-73
2023/01/10 09:01:07;;;;;;;8.73;2.40;;;6.40;99.90;;;;;;5045051;28;20068;-74
2023/01/10 09:03:34;;;;;;;3.50;2.25;;;6.40;99.90;;;;;;5049657;28;20488;-74
2023/01/10 09:06:01;;;;;;;4.88;2.65;;;6.40;99.90;;;;;;5042188;28;20051;-74
2023/01/10 09:08:27;;;;;;;7.55;4.05;;;6.50;99.90;;;;;;5052667;28;20020;-72
2023/01/10 09:10:53;;;;;;;4.28;2.63;;;6.50;99.90;;;;;;5047672;28;20096;-72
2023/01/10 09:13:19;;;;;;;3.60;2.30;;;6.60;99.90;;;;;;5048532;28;20100;-72
2023/01/10 09:15:45;;;;;;;4.32;2.53;;;6.40;99.90;;;;;;5054210;28;20482;-72
2023/01/10 09:18:13;;;;;;;6.20;3.17;;;6.40;99.90;;;;;;5058714;28;20044;-72
2023/01/10 09:20:41;;;;;;;7.20;2.85;;;6.40;99.90;;;;;;5052164;28;20040;-73
2023/01/10 09:23:16;;;;;;;3.72;2.17;;;6.40;99.90;;;;;;5065343;28;20086;-73
2023/01/10 09:25:43;;;;;;;4.88;2.42;;;6.40;99.90;;;;;;5061874;28;20091;-71
2023/01/10 09:28:09;;;;;;;3.10;2.20;;;6.50;99.90;;;;;;5053518;28;20120;-73
2023/01/10 09:30:35;;;;;;;6.90;2.60;;;6.50;99.90;;;;;;5045277;28;20502;-73
2023/01/10 09:33:01;;;;;;;3.45;2.25;;;6.50;99.90;;;;;;5051663;28;20033;-73
2023/01/10 09:35:28;;;;;;;3.40;2.10;;;6.50;99.90;;;;;;5052095;28;20094;-72
2023/01/10 09:38:00;;;;;;;4.47;2.45;;;6.40;99.90;;;;;;5050939;28;20013;-73
2023/01/10 09:40:56;;;;;;;4.90;2.40;;;6.50;99.90;;;;;;5045804;28;20036;-71
2023/01/10 09:43:50;;;;;;;6.97;3.03;;;6.40;99.90;;;;;;5030768;28;20029;-73
2023/01/10 09:46:24;;;;;;;4.05;2.40;;;6.40;99.90;;;;;;5067496;28;20084;-73
2023/01/10 09:49:16;;;;;;;2.85;2.03;;;6.50;99.90;;;;;;5052682;28;20025;-73
2023/01/10 09:51:49;;;;;;;5.45;3.38;;;6.50;99.90;;;;;;5052863;28;20041;-72
2023/01/10 09:54:22;;;;;;;;;;;6.50;99.90;;;;;;5065984;28;20029;-73
2023/01/10 09:56:48;;;;;;;7.38;3.20;;;6.50;99.90;;;;;;5052638;28;20360;-73
2023/01/10 09:59:21;;;;;;;6.88;3.22;;;6.60;99.90;;;;;;5057490;28;20021;-73
2023/01/10 10:01:54;;;;;;;7.60;4.28;;;6.50;99.90;;;;;;5072615;28;20032;-73
2023/01/10 10:04:29;;;;;;;;;;;6.60;99.90;;;;;;5046572;28;20035;-73
2023/01/10 10:06:55;;;;;;;8.30;3.50;;;6.60;99.90;;;;;;5060422;28;19912;-73
2023/01/10 10:09:28;;;;;;;4.18;2.50;;;6.60;99.90;;;;;;5056419;28;20078;-73
2023/01/10 10:11:54;;;;;;;4.68;3.17;;;6.60;99.90;;;;;;5072219;28;20025;-73
2023/01/10 10:14:41;;;;;;;6.70;3.03;;;6.60;99.90;;;;;;5076763;28;20406;-73
2023/01/10 10:17:28;;;;;;;5.05;3.13;;;6.60;99.90;;;;;;5059177;28;20037;-73
2023/01/10 10:20:19;;;;;;;5.72;3.75;;;6.60;99.90;;;;;;5067848;28;20021;-73
2023/01/10 10:22:54;;;;;;;8.20;3.88;;;6.60;99.90;;;;;;5065363;28;20098;-72
2023/01/10 10:25:50;;;;;;;6.65;4.05;;;6.70;99.90;;;;;;5061661;28;20036;-73
2023/01/10 10:29:01;;;;;;;7.43;3.40;;;6.70;99.90;;;;;;5004878;28;20030;-72
2023/01/10 10:31:44;;;;;;;6.95;3.78;;;6.70;99.90;;;;;;5011814;28;20044;-73
2023/01/10 10:34:31;;;;;;;10.80;5.25;;;6.60;99.90;;;;;;5005527;28;20034;-73
2023/01/10 10:37:21;;;;;;;10.27;4.90;;;6.60;99.90;;;;;;5014164;28;20056;-73
2023/01/10 10:39:53;;;;;;;12.35;5.72;;;6.60;99.90;;;;;;5011263;28;20030;-73
2023/01/10 10:42:20;;;;;;;13.67;7.60;;;6.60;99.90;;;;;;5012557;28;20093;-73
2023/01/10 10:44:48;;;;;;;10.27;5.85;;;6.70;99.90;;;;;;5008700;28;20124;-72
2023/01/10 10:47:21;;;;;;;9.55;5.53;;;6.70;99.90;;;;;;5003805;28;20043;-73
2023/01/10 10:49:59;;;;;;;11.80;7.00;;;6.80;99.90;;;;;;5006730;28;20026;-73
2023/01/10 10:52:35;;;;;;;11.38;6.32;;;6.90;99.90;;;;;;5009269;28;20085;-73
2023/01/10 10:55:04;;;;;;;11.85;6.55;;;6.90;99.90;;;;;;5008485;28;20026;-73
2023/01/10 10:57:33;;;;;;;13.65;7.15;;;6.70;99.90;;;;;;5004108;28;20113;-73
2023/01/10 11:00:01;;;;;;;13.85;6.93;;;6.70;99.90;;;;;;5022360;28;20025;-73
2023/01/10 11:02:30;;;;;;;8.48;4.63;;;6.60;99.90;;;;;;5018284;28;20034;-73
2023/01/10 11:04:59;;;;;;;9.13;4.78;;;6.60;99.90;;;;;;5027016;28;20057;-73
2023/01/10 11:07:32;;;;;;;13.82;6.65;;;6.50;99.90;;;;;;5066517;28;20037;-73
2023/01/10 11:10:08;;;;;;;11.00;6.63;;;6.50;99.90;;;;;;5046331;28;20032;-73
2023/01/10 11:12:37;;;;;;;8.98;5.78;;;6.50;99.90;;;;;;5044195;28;20387;-72
2023/01/10 11:15:03;;;;;;;14.45;8.27;;;6.50;99.90;;;;;;5048871;28;20018;-73
2023/01/10 11:17:33;;;;;;;12.35;6.65;;;6.50;99.90;;;;;;5050435;28;20499;-74
2023/01/10 11:20:14;;;;;;;13.98;7.60;;;6.40;99.90;;;;;;5061559;28;20384;-73
2023/01/10 11:22:48;;;;;;;12.00;7.18;;;6.50;99.90;;;;;;5039042;28;20045;-74
2023/01/10 11:25:17;;;;;;;13.15;7.45;;;6.50;99.90;;;;;;5054716;28;20036;-73
2023/01/10 11:27:52;;;;;;;14.48;7.45;;;6.50;99.90;;;;;;5062418;28;20024;-74
2023/01/10 11:30:24;;;;;;;14.60;7.65;;;6.50;99.90;;;;;;5053111;28;20021;-73
2023/01/10 11:33:02;;;;;;;15.80;8.95;;;6.50;99.90;;;;;;5041991;28;20029;-73
2023/01/10 11:35:40;;;;;;;9.55;5.43;;;6.60;99.90;;;;;;5055488;28;20388;-73
2023/01/10 11:38:15;;;;;;;10.88;5.28;;;6.50;99.90;;;;;;5062609;28;20029;-74
2023/01/10 11:41:02;;;;;;;9.98;4.97;;;6.60;99.90;;;;;;5046735;28;20064;-73
2023/01/10 11:43:42;;;;;;;11.38;5.32;;;6.60;99.90;;;;;;5048994;28;20035;-72
2023/01/10 11:46:25;;;;;;;8.20;4.20;;;6.60;99.90;;;;;;5060050;28;20049;-72
2023/01/10 11:49:05;;;;;;;9.05;4.85;;;6.60;99.90;;;;;;5042010;28;20036;-74
2023/01/10 11:51:37;;;;;;;7.60;3.80;;;6.70;99.90;;;;;;5044395;28;20401;-73
2023/01/10 11:54:11;;;;;;;10.27;4.28;;;6.70;99.90;;;;;;5055741;28;20033;-74
2023/01/10 11:56:42;;;;;;;5.68;2.95;;;6.70;99.90;;;;;;5048851;28;20060;-73
2023/01/10 11:59:12;;;;;;;5.00;2.88;;;6.60;99.90;;;;;;5056549;28;20031;-73
2023/01/10 12:01:45;;;;;;;5.63;2.80;;;6.50;99.90;;;;;;5059543;28;20108;-73
2023/01/10 12:04:16;;;;;;;8.73;4.03;;;6.50;99.90;;;;;;5050840;28;20025;-74
2023/01/10 12:06:48;;;;;;;10.43;5.03;;;6.40;99.90;;;;;;5043289;28;20472;-73
2023/01/10 12:09:38;;;;;;;5.73;3.00;;;6.50;99.90;;;;;;5053854;28;20064;-73
2023/01/10 12:12:28;;;;;;;6.05;3.08;;;6.40;99.90;;;;;;5051172;28;20033;-74
2023/01/10 12:15:15;;;;;;;11.10;4.25;;;6.40;99.90;;;;;;5042411;28;20029;-74
2023/01/10 12:17:41;;;;;;;7.95;3.17;;;6.40;99.90;;;;;;5043655;28;20040;-75
2023/01/10 12:20:13;;;;;;;7.30;3.85;;;6.40;99.90;;;;;;5051834;28;20029;-73
2023/01/10 12:22:42;;;;;;;7.78;3.90;;;6.40;99.90;;;;;;5041502;28;20033;-73
2023/01/10 12:25:19;;;;;;;8.30;3.50;;;6.40;99.90;;;;;;5052405;28;20068;-73
2023/01/10 12:27:49;;;;;;;5.63;3.03;;;6.40;99.90;;;;;;5044447;28;20101;-72
2023/01/10 12:30:26;;;;;;;8.40;4.45;;;6.40;99.90;;;;;;5044101;28;20017;-73
2023/01/10 12:32:55;;;;;;;7.20;3.40;;;6.50;99.90;;;;;;5044146;28;20040;-75
2023/01/10 12:35:33;;;;;;;5.18;3.00;;;6.40;99.90;;;;;;5053054;28;20039;-74
2023/01/10 12:44:09;;;;;;;7.03;4.28;;;6.30;99.90;;;;;;5051983;28;20555;-74
2023/01/10 12:44:10;;;;;;;12.90;4.03;;;6.30;99.90;;;;;;5046051;28;20028;-73
2023/01/10 12:46:49;;;;;;;9.50;4.55;;;6.20;99.90;;;;;;5050689;28;20040;-73
2023/01/10 12:49:33;;;;;;;7.25;3.53;;;6.20;99.90;;;;;;5053217;28;20021;-75
2023/01/10 12:52:09;;;;;;;6.40;3.95;;;6.20;99.90;;;;;;5053095;28;20502;-75
2023/01/10 12:54:35;;;;;;;7.85;4.10;;;6.20;99.90;;;;;;5053347;28;20033;-73
2023/01/10 12:57:11;;;;;;;10.25;4.80;;;6.20;99.90;;;;;;5051087;28;20595;-73
2023/01/10 12:59:42;;;;;;;7.50;4.20;;;6.20;99.90;;;;;;5043893;28;20032;-74
2023/01/10 13:02:37;;;;;;;9.73;4.80;;;6.10;99.90;;;;;;5051509;28;20032;-73
2023/01/10 13:05:04;;;;;;;10.45;4.93;;;6.00;99.90;;;;;;5050306;28;20045;-74
2023/01/10 13:07:34;;;;;;;12.05;5.97;;;6.10;99.90;;;;;;5050474;28;20465;-74
2023/01/10 13:10:01;;;;;;;13.40;6.72;;;6.10;99.90;;;;;;5064757;28;20036;-73
2023/01/10 13:12:35;;;;;;;13.18;6.38;;;6.10;99.90;;;;;;5060577;28;20013;-74
2023/01/10 13:15:04;;;;;;;12.63;5.80;;;6.20;99.90;;;;;;5040382;28;20020;-73
2023/01/10 13:17:38;;;;;;;11.23;5.82;;;6.20;99.90;;;;;;5061614;28;20536;-73
2023/01/10 13:20:37;;;;;;;9.20;5.05;;;6.30;99.90;;;;;;5058041;28;20029;-73
2023/01/10 13:23:20;;;;;;;7.82;4.53;;;6.30;99.90;;;;;;5065069;28;20444;-73
2023/01/10 13:25:57;;;;;;;8.50;3.78;;;6.20;99.90;;;;;;5042175;28;20044;-73